Flight Track Log - Related Links

Times and Time Zones

All times are in EDT time to prevent confusion due to time zone crossing. See the SKW6492 flight status page for this flight to view local times or setup timezone preferences in your user account.

Time Position Orientation Groundspeed Altitude Reporting Facility
EDT Latitude Longitude Course Direction KTS MPH feet Rate Location/Type
Fri 09:34:18 PM 39.9167 -104.6833 346° North 168 193 6,500  Level Denver TRACON
Fri 09:35:18 PM 39.9667 -104.6833 360° North 222 255 8,200 1,886 Climbing Denver TRACON
Fri 09:36:03 PM 40.0189 -104.6947 351° North 242 278 9,800 1,850 Climbing Denver Center
Fri 09:37:00 PM 40.2117 -104.9739 346° North  Level Estimated
Fri 09:37:05 PM 40.0953 -104.7086 352° North 274 315 11,500  Level Denver Center
Fri 09:38:00 PM 40.2991 -105.0496 348° North  Level Estimated
Fri 09:38:06 PM 40.1889 -104.7272 351° North 309 356 13,800  Level Denver Center
Fri 09:39:00 PM 40.3865 -105.1255 346° North  Level Estimated
Fri 09:39:08 PM 40.2783 -104.7450 351° North 325 374 15,700  Level Denver Center
Fri 09:40:10 PM 40.3781 -104.7678 350° North 337 388 17,500 1,645 Climbing Denver Center
Fri 09:41:12 PM 40.4764 -104.7867 352° North 355 409 19,100 1,500 Climbing Denver Center
Fri 09:42:14 PM 40.5808 -104.8100 350° North 357 411 20,600 1,403 Climbing Denver Center
Fri 09:43:16 PM 40.6831 -104.8292 352° North 369 425 22,000 1,210 Climbing Denver Center
Fri 09:44:18 PM 40.7747 -104.8467 352° North 357 411 23,100 1,065 Climbing Denver Center
Fri 09:45:20 PM 40.8753 -104.8928 341° North 376 433 24,200 1,161 Climbing Denver Center
Fri 09:46:22 PM 40.9969 -104.9511 340° North 388 447 25,500 1,200 Climbing Denver Center
Fri 09:47:25 PM 41.1042 -105.0053 339° North 393 452 26,700 1,104 Climbing Denver Center
Fri 09:48:27 PM 41.2019 -105.0536 340° North 393 452 27,800 1,113 Climbing Denver Center
Fri 09:49:29 PM 41.3047 -105.1381 328° Northwest 392 451 29,000 823 Climbing Denver Center
Fri 09:50:31 PM 41.3858 -105.2306 319° Northwest 397 457 29,500 484 Climbing Denver Center
Fri 09:51:33 PM 41.4689 -105.3233 320° Northwest 405 466 30,000 581 Climbing Denver Center
Fri 09:52:35 PM 41.5672 -105.4350 320° Northwest 413 475 30,700 726 Climbing Denver Center
Fri 09:53:37 PM 41.6522 -105.5328 319° Northwest 418 481 31,500 629 Climbing Denver Center
Fri 09:54:39 PM 41.7489 -105.6425 320° Northwest 410 472 32,000 242 Climbing Denver Center
Fri 09:55:41 PM 41.8342 -105.7414 319° Northwest 419 482 32,000  Level Denver Center
Fri 09:56:43 PM 41.9375 -105.8594 320° Northwest 432 497 32,000  Level Denver Center
Fri 09:57:45 PM 42.0250 -105.9606 319° Northwest 433 498 32,000  Level Denver Center
Fri 09:58:47 PM 42.1256 -106.0789 319° Northwest 429 494 32,000  Level Denver Center
Fri 09:59:49 PM 42.2125 -106.1808 319° Northwest 431 496 32,000  Level Denver Center
Fri 10:00:51 PM 42.3136 -106.2986 319° Northwest 430 495 32,000  Level Denver Center
Fri 10:01:53 PM 42.4006 -106.4006 319° Northwest 431 496 32,000  Level Denver Center
Fri 10:02:55 PM 42.4872 -106.5039 319° Northwest 433 498 32,000  Level Denver Center
Fri 10:03:57 PM 42.5878 -106.6219 319° Northwest 428 493 32,000  Level Denver Center
Fri 10:04:59 PM 42.6736 -106.7242 319° Northwest 427 491 32,000  Level Denver Center
Fri 10:06:01 PM 42.7736 -106.8428 319° Northwest 427 491 32,000  Level Denver Center
Fri 10:07:03 PM 42.8583 -106.9461 318° Northwest 426 490 32,000  Level Denver Center
Fri 10:07:48 PM 42.9283 -107.0322 318° Northwest 425 489 32,000  Level Salt Lake Center
Fri 10:08:50 PM 43.0089 -107.1281 319° Northwest 425 489 32,000  Level Salt Lake Center
Fri 10:09:51 PM 43.1144 -107.2569 318° Northwest 425 489 32,000  Level Salt Lake Center
Fri 10:10:53 PM 43.2019 -107.3636 318° Northwest 423 487 32,000  Level Salt Lake Center
Fri 10:11:54 PM 43.2892 -107.4703 318° Northwest 421 484 32,000  Level Salt Lake Center
Fri 10:12:56 PM 43.3794 -107.5742 320° Northwest 423 487 32,000  Level Salt Lake Center
Fri 10:13:57 PM 43.4781 -107.6606 328° Northwest 420 483 32,000  Level Salt Lake Center
Fri 10:14:59 PM 43.5761 -107.7458 328° Northwest 419 482 32,000 -98 Level Salt Lake Center
Fri 10:16:00 PM 43.6736 -107.8361 326° Northwest 421 484 31,800 -1,463 Descending Salt Lake Center
Fri 10:17:02 PM 43.7758 -107.9292 327° Northwest 436 502 29,000 -3,024 Descending Salt Lake Center
Fri 10:18:03 PM 43.9003 -108.0444 326° Northwest 447 514 25,600 -3,073 Descending Salt Lake Center
Fri 10:19:05 PM 44.0019 -108.1369 327° Northwest 437 503 22,700 -2,829 Descending Salt Lake Center
Fri 10:20:06 PM 44.1031 -108.2292 327° Northwest 435 501 19,800 -2,585 Descending Salt Lake Center
Fri 10:21:08 PM 44.1978 -108.3181 326° Northwest 425 489 17,400 -2,439 Descending Salt Lake Center
Fri 10:22:09 PM 44.2872 -108.4003 327° Northwest 408 470 14,800 -2,293 Descending Salt Lake Center
Fri 10:23:11 PM 44.3700 -108.4783 326° Northwest 386 444 12,700 -2,000 Descending Salt Lake Center
Fri 10:24:12 PM 44.4494 -108.5514 327° Northwest 365 420 10,700 -1,220 Descending Salt Lake Center
Fri 10:25:14 PM 44.5117 -108.6086 327° Northwest 305 351 10,200 -634 Descending Salt Lake Center
Fri 10:26:15 PM 44.5681 -108.6625 326° Northwest 265 305 9,400 -829 Descending Salt Lake Center
Fri 10:27:17 PM 44.6178 -108.7139 324° Northwest 244 281 8,500 -677 Descending Salt Lake Center
Fri 10:28:19 PM 44.6519 -108.7778 307° West 214 246 8,000 -488 Descending Salt Lake Center
Fri 10:29:20 PM 44.6258 -108.8400 239° Southwest 194 223 7,500 -341 Descending Salt Lake Center
Fri 10:30:22 PM 44.5953 -108.8931 231° Southwest 185 213 7,300 -488 Descending Salt Lake Center
Fri 10:31:23 PM 44.5692 -108.9394 232° Southwest 170 196 6,500 -732 Descending Salt Lake Center
Fri 10:32:25 PM 44.5411 -108.9883 231° Southwest 160 184 5,800 -677 Descending Salt Lake Center

Login

Don't have an account? Register now (free) for customized features, flight alerts, and more!